BDP weather

Bhadrapur Airport
Bhadrapur, Mechi, Nepal

Public forecast

Using degrees Celsius for public forecast. Weather courtesy of forecast.io.

Closest aviation weather report (METAR) to Bhadrapur Airport

Closest report is Bagdogra Airport, 14.9 nm (27.6 km) ENE. Retrieved 2020/08/04 02:30 UTC (27 minutes ago):

VEBD 040230Z VRB01KT 6000 SCT250 33/26 Q0994 NOSIG

Closest aviation forecast (TAF) to Bhadrapur Airport

Forecast is more than 12 hours old.

Closest forecast is Bagdogra Airport, 14.9 nm (27.6 km) ENE. Retrieved 2020/08/03 12:30 UTC (14 hours ago):

TAF VEBD 030930Z 0312/0324 12005KT 6000 SCT025 SCT090 TEMPO 0312/0314 2000 TSRA SCT020 FEW030CB SCT090